createdAt,value
2024-03-08T00:00:36.395Z,25.73
2024-03-08T00:03:03.898Z,20.65
2024-03-08T00:05:31.031Z,22.38
2024-03-08T00:07:57.847Z,22.02
2024-03-08T00:10:26.179Z,22.98
2024-03-08T00:12:54.740Z,23.27
2024-03-08T00:15:24.129Z,23.55
2024-03-08T00:17:51.456Z,23.60
2024-03-08T00:20:21.451Z,20.00
2024-03-08T00:22:48.319Z,21.83
2024-03-08T00:25:15.579Z,21.77
2024-03-08T00:27:42.523Z,21.98
2024-03-08T00:30:09.841Z,21.40
2024-03-08T00:32:38.181Z,24.60
2024-03-08T00:35:08.414Z,24.30
2024-03-08T00:37:38.094Z,22.27
2024-03-08T00:40:05.757Z,22.90
2024-03-08T00:42:32.553Z,21.33
2024-03-08T00:44:59.541Z,22.02
2024-03-08T00:47:26.528Z,20.05
2024-03-08T00:49:54.180Z,21.75
2024-03-08T00:52:20.889Z,19.45
2024-03-08T00:54:47.431Z,22.85
2024-03-08T00:57:14.294Z,17.85
2024-03-08T00:59:41.308Z,19.30
2024-03-08T01:02:10.111Z,20.48
2024-03-08T01:04:36.779Z,18.67
2024-03-08T01:07:04.096Z,19.13
2024-03-08T01:09:30.650Z,20.70
2024-03-08T01:11:57.503Z,16.48
2024-03-08T01:14:24.911Z,20.15
2024-03-08T01:16:52.801Z,17.35
2024-03-08T01:19:19.477Z,19.52
2024-03-08T01:21:46.147Z,21.40
2024-03-08T01:24:12.877Z,19.27
2024-03-08T01:26:40.046Z,19.67
2024-03-08T01:29:06.771Z,22.02
2024-03-08T01:31:33.931Z,20.52
2024-03-08T01:34:00.879Z,22.73
2024-03-08T01:36:27.647Z,16.70
2024-03-08T01:38:54.614Z,19.98
2024-03-08T01:41:21.512Z,19.77
2024-03-08T01:43:48.183Z,17.85
2024-03-08T01:46:23.176Z,20.38
2024-03-08T01:48:52.090Z,21.75
2024-03-08T01:51:19.555Z,19.17
2024-03-08T01:53:48.401Z,20.17
2024-03-08T01:56:15.472Z,19.77
2024-03-08T01:58:45.431Z,21.92
2024-03-08T02:01:16.032Z,21.58
2024-03-08T02:03:44.958Z,19.70
2024-03-08T02:06:18.703Z,19.08
2024-03-08T02:08:46.784Z,20.48
2024-03-08T02:11:14.620Z,21.90
2024-03-08T02:13:41.473Z,20.33
2024-03-08T02:16:09.751Z,21.73
2024-03-08T02:18:38.099Z,20.27
2024-03-08T02:21:06.858Z,22.02
2024-03-08T02:23:34.548Z,20.40
2024-03-08T02:26:01.587Z,19.60
2024-03-08T02:28:28.861Z,21.42
2024-03-08T02:30:58.929Z,18.35
2024-03-08T02:33:28.357Z,22.08
2024-03-08T02:35:55.654Z,20.65
2024-03-08T02:38:25.404Z,21.60
2024-03-08T02:40:54.417Z,20.20
2024-03-08T02:43:26.134Z,19.25
2024-03-08T02:45:54.045Z,21.98
2024-03-08T02:48:22.157Z,18.58
2024-03-08T02:50:49.098Z,19.15
2024-03-08T02:53:15.692Z,17.65
2024-03-08T02:55:43.006Z,17.02
2024-03-08T02:58:11.712Z,16.13
2024-03-08T03:00:40.446Z,18.98
2024-03-08T03:03:08.051Z,16.80
2024-03-08T03:05:35.124Z,19.00
2024-03-08T03:08:02.130Z,21.63
2024-03-08T03:10:29.086Z,20.13
2024-03-08T03:12:55.728Z,20.80
2024-03-08T03:15:23.197Z,18.30
2024-03-08T03:17:52.209Z,20.38
2024-03-08T03:20:28.338Z,20.42
2024-03-08T03:22:55.518Z,19.88
2024-03-08T03:25:29.905Z,20.48
2024-03-08T03:27:59.080Z,18.77
2024-03-08T03:30:27.667Z,22.15
2024-03-08T03:32:56.086Z,19.73
2024-03-08T03:35:23.540Z,21.45
2024-03-08T03:38:10.561Z,19.70
2024-03-08T03:40:39.852Z,20.35
2024-03-08T03:43:07.070Z,20.75
2024-03-08T03:45:38.023Z,22.30
2024-03-08T03:48:08.029Z,21.07
2024-03-08T03:50:36.004Z,19.83
2024-03-08T03:53:05.176Z,19.02
2024-03-08T03:55:31.840Z,20.67
2024-03-08T03:58:00.283Z,20.02
2024-03-08T04:00:28.317Z,21.20
2024-03-08T04:02:56.261Z,20.08
2024-03-08T04:05:23.582Z,21.05
2024-03-08T04:07:50.167Z,17.77
2024-03-08T04:10:16.901Z,20.50
2024-03-08T04:12:44.044Z,19.30
2024-03-08T04:15:13.009Z,18.95
2024-03-08T04:17:39.962Z,17.52
2024-03-08T04:20:15.911Z,19.77
2024-03-08T04:22:44.416Z,19.17
2024-03-08T04:25:11.038Z,19.13
2024-03-08T04:27:37.981Z,18.98
2024-03-08T04:30:05.199Z,22.95
2024-03-08T04:32:33.535Z,22.38
2024-03-08T04:35:02.849Z,19.60
2024-03-08T04:37:30.934Z,21.48
2024-03-08T04:39:58.233Z,20.42
2024-03-08T04:42:26.248Z,23.15
2024-03-08T04:44:54.655Z,20.73
2024-03-08T04:47:21.372Z,22.58
2024-03-08T04:49:48.129Z,20.52
2024-03-08T04:52:14.776Z,19.75
2024-03-08T04:54:41.328Z,20.50
2024-03-08T04:57:09.704Z,19.23
2024-03-08T04:59:37.315Z,23.15
2024-03-08T05:02:04.554Z,19.30
2024-03-08T05:04:31.383Z,22.00
2024-03-08T05:06:58.230Z,19.92
2024-03-08T05:09:25.036Z,21.77
2024-03-08T05:11:51.957Z,19.02
2024-03-08T05:14:20.994Z,21.70
2024-03-08T05:16:51.397Z,19.20
2024-03-08T05:19:19.301Z,22.25
2024-03-08T05:21:50.752Z,22.45
2024-03-08T05:24:19.121Z,16.65
2024-03-08T05:26:47.809Z,19.02
2024-03-08T05:29:15.487Z,21.10
2024-03-08T05:31:49.638Z,21.25
2024-03-08T05:34:20.570Z,21.80
2024-03-08T05:36:47.858Z,20.42
2024-03-08T05:39:14.915Z,22.15
2024-03-08T05:41:42.034Z,20.27
2024-03-08T05:44:09.656Z,20.52
2024-03-08T05:46:37.026Z,22.80
2024-03-08T05:49:07.878Z,20.75
2024-03-08T05:51:35.615Z,22.13
2024-03-08T05:54:14.585Z,23.58
2024-03-08T05:56:46.387Z,20.83
2024-03-08T05:59:13.373Z,24.00
2024-03-08T06:01:42.160Z,23.25
2024-03-08T06:04:09.149Z,21.88
2024-03-08T06:06:35.779Z,20.75
2024-03-08T06:09:10.200Z,22.75
2024-03-08T06:11:38.603Z,21.20
2024-03-08T06:14:05.265Z,22.58
2024-03-08T06:16:31.927Z,23.90
2024-03-08T06:18:58.859Z,21.33
2024-03-08T06:21:29.112Z,21.92
2024-03-08T06:23:56.436Z,25.83
2024-03-08T06:28:40.716Z,21.10
2024-03-08T06:31:09.080Z,23.00
2024-03-08T06:33:36.631Z,24.77
2024-03-08T06:36:03.601Z,24.58
2024-03-08T06:38:31.734Z,28.33
2024-03-08T06:40:58.536Z,21.33
2024-03-08T06:43:31.147Z,23.40
2024-03-08T06:45:57.873Z,23.20
2024-03-08T06:48:24.588Z,24.23
2024-03-08T06:50:51.859Z,23.08
2024-03-08T06:53:23.949Z,21.67
2024-03-08T06:55:51.991Z,23.80
2024-03-08T06:58:18.603Z,24.05
2024-03-08T07:00:45.383Z,27.40
2024-03-08T07:03:13.739Z,23.15
2024-03-08T07:05:41.646Z,24.17
2024-03-08T07:08:08.590Z,24.27
2024-03-08T07:10:36.142Z,23.85
2024-03-08T07:13:05.602Z,25.83
2024-03-08T07:15:32.312Z,24.35
2024-03-08T07:18:00.935Z,45.97
2024-03-08T07:20:27.895Z,26.02
2024-03-08T07:22:55.013Z,26.27
2024-03-08T07:25:22.531Z,21.45
2024-03-08T07:27:50.170Z,22.40
2024-03-08T07:30:35.788Z,23.70
2024-03-08T07:33:06.042Z,25.90
2024-03-08T07:35:32.909Z,24.23
2024-03-08T07:38:01.221Z,24.60
2024-03-08T07:40:28.185Z,22.67
2024-03-08T07:42:54.727Z,22.50
2024-03-08T07:45:23.260Z,22.42
2024-03-08T07:47:50.359Z,22.17
2024-03-08T07:50:18.089Z,25.23
2024-03-08T07:52:44.888Z,29.02
2024-03-08T07:55:14.081Z,22.80
2024-03-08T07:57:41.284Z,23.38
2024-03-08T08:00:09.411Z,20.63
2024-03-08T08:02:39.228Z,24.05
2024-03-08T08:05:07.812Z,25.48
2024-03-08T08:07:34.647Z,23.08
2024-03-08T08:10:01.266Z,29.85
2024-03-08T08:12:29.523Z,26.35
2024-03-08T08:14:56.213Z,27.05
2024-03-08T08:17:22.986Z,24.85
2024-03-08T08:19:49.652Z,25.15
2024-03-08T08:22:16.375Z,24.85
2024-03-08T08:24:43.001Z,29.45
2024-03-08T08:27:10.345Z,27.75
2024-03-08T08:29:37.022Z,29.80
2024-03-08T08:32:04.906Z,30.60
2024-03-08T08:34:32.505Z,30.33
2024-03-08T08:36:59.327Z,32.30
2024-03-08T08:39:26.956Z,156.50
2024-03-08T08:41:55.912Z,39.78
2024-03-08T08:44:22.954Z,28.42
2024-03-08T08:46:50.334Z,28.38
2024-03-08T08:49:21.555Z,25.25
2024-03-08T08:51:52.956Z,37.92
2024-03-08T08:54:21.724Z,29.40
2024-03-08T08:56:50.845Z,27.10
2024-03-08T08:59:23.436Z,29.63
2024-03-08T09:01:51.598Z,30.08
2024-03-08T09:04:18.289Z,28.70
2024-03-08T09:06:46.144Z,29.17
2024-03-08T09:09:14.473Z,28.50
2024-03-08T09:11:44.031Z,31.13
2024-03-08T09:14:13.416Z,31.98
2024-03-08T09:16:40.377Z,30.67
2024-03-08T09:19:07.874Z,27.85
2024-03-08T09:21:37.764Z,28.77
2024-03-08T09:24:04.916Z,29.50
2024-03-08T09:26:31.639Z,27.67
2024-03-08T09:28:58.629Z,28.70
2024-03-08T09:31:25.264Z,27.50
2024-03-08T09:33:52.022Z,26.55
2024-03-08T09:36:18.924Z,31.55
2024-03-08T09:38:45.565Z,27.38
2024-03-08T09:41:12.145Z,28.13
2024-03-08T09:43:39.710Z,34.00
2024-03-08T09:46:08.587Z,29.02
2024-03-08T09:48:36.068Z,27.83
2024-03-08T09:51:04.824Z,27.48
2024-03-08T09:53:32.076Z,27.58
2024-03-08T09:56:00.237Z,27.75
2024-03-08T09:58:35.628Z,28.85
2024-03-08T10:01:06.004Z,24.85
2024-03-08T10:03:35.991Z,27.10
2024-03-08T10:06:03.477Z,23.80
2024-03-08T10:08:30.629Z,25.05
2024-03-08T10:11:01.101Z,26.35
2024-03-08T10:13:28.976Z,27.13
2024-03-08T10:15:55.967Z,24.90
2024-03-08T10:18:23.929Z,24.27
2024-03-08T10:21:08.348Z,21.55
2024-03-08T10:23:35.456Z,24.13
2024-03-08T10:26:15.673Z,23.90
2024-03-08T10:28:44.114Z,25.42
2024-03-08T10:31:11.099Z,22.77
2024-03-08T10:33:40.991Z,23.38
2024-03-08T10:36:12.135Z,23.38
2024-03-08T10:38:41.206Z,29.73
2024-03-08T10:41:10.644Z,19.60
2024-03-08T10:44:09.945Z,21.27
2024-03-08T10:46:56.157Z,23.33
2024-03-08T10:49:32.886Z,21.88
2024-03-08T10:52:00.353Z,20.05
2024-03-08T10:54:27.572Z,23.33
2024-03-08T10:56:55.970Z,21.33
2024-03-08T10:59:23.542Z,20.95
2024-03-08T11:01:52.119Z,19.67
2024-03-08T11:04:23.902Z,23.60
2024-03-08T11:06:55.202Z,20.00
2024-03-08T11:09:37.799Z,22.38
2024-03-08T11:12:26.990Z,23.00
2024-03-08T11:14:55.044Z,21.42
2024-03-08T11:17:28.835Z,24.33
2024-03-08T11:20:02.645Z,20.77
2024-03-08T11:22:34.217Z,20.42
2024-03-08T11:25:10.683Z,19.65
2024-03-08T11:27:40.239Z,22.55
2024-03-08T11:30:15.992Z,21.90
2024-03-08T11:32:48.883Z,19.63
2024-03-08T11:35:21.051Z,21.38
2024-03-08T11:37:49.104Z,20.73
2024-03-08T11:40:17.411Z,20.27
2024-03-08T11:42:48.971Z,22.45
2024-03-08T11:45:22.559Z,14.77
2024-03-08T11:47:50.786Z,21.98
2024-03-08T11:50:20.187Z,20.27
2024-03-08T11:52:47.773Z,18.92
2024-03-08T11:55:14.802Z,17.50
2024-03-08T11:57:43.326Z,20.05
2024-03-08T12:00:27.781Z,22.33
2024-03-08T12:03:05.756Z,21.48
2024-03-08T12:05:34.604Z,21.83
2024-03-08T12:08:03.459Z,20.80
2024-03-08T12:10:30.738Z,19.65
2024-03-08T12:13:04.256Z,20.67
2024-03-08T12:15:34.859Z,23.52
2024-03-08T12:18:01.918Z,20.25
2024-03-08T12:20:31.174Z,23.35
2024-03-08T12:22:59.329Z,22.75
2024-03-08T12:25:33.241Z,22.33
2024-03-08T12:28:11.857Z,20.85
2024-03-08T12:30:48.206Z,21.65
2024-03-08T12:33:15.319Z,23.10
2024-03-08T12:35:43.266Z,20.63
2024-03-08T12:38:10.173Z,22.95
2024-03-08T12:40:41.624Z,20.98
2024-03-08T12:43:08.695Z,21.42
2024-03-08T12:45:35.343Z,22.20
2024-03-08T12:48:02.118Z,19.73
2024-03-08T12:50:28.743Z,24.67
2024-03-08T12:52:55.563Z,27.67
2024-03-08T12:55:22.262Z,20.92
2024-03-08T12:57:50.056Z,21.08
2024-03-08T13:00:24.668Z,20.77
2024-03-08T13:02:52.633Z,23.42
2024-03-08T13:05:19.423Z,23.00
2024-03-08T13:07:47.618Z,20.80
2024-03-08T13:10:18.119Z,21.10
2024-03-08T13:12:45.025Z,24.25
2024-03-08T13:15:16.923Z,22.63
2024-03-08T13:17:45.684Z,24.00
2024-03-08T13:20:19.065Z,21.95
2024-03-08T13:22:48.924Z,22.48
2024-03-08T13:25:15.763Z,21.25
2024-03-08T13:27:43.738Z,21.15
2024-03-08T13:30:14.242Z,23.70
2024-03-08T13:32:44.372Z,21.75
2024-03-08T13:35:14.838Z,22.52
2024-03-08T13:37:42.341Z,22.60
2024-03-08T13:40:15.626Z,22.98
2024-03-08T13:42:42.378Z,21.48
2024-03-08T13:45:12.979Z,23.58
2024-03-08T13:47:43.098Z,23.58
2024-03-08T13:50:13.910Z,23.90
2024-03-08T13:52:41.213Z,21.33
2024-03-08T13:55:08.959Z,24.35
2024-03-08T13:57:35.660Z,23.17
2024-03-08T14:00:02.301Z,23.48
2024-03-08T14:02:30.082Z,25.65
2024-03-08T14:04:56.783Z,24.33
2024-03-08T14:07:24.336Z,25.65
2024-03-08T14:09:54.024Z,23.00
2024-03-08T14:12:22.550Z,24.10
2024-03-08T14:14:49.313Z,23.65
2024-03-08T14:17:18.624Z,20.48
2024-03-08T14:19:45.582Z,22.70
2024-03-08T14:22:15.528Z,24.45
2024-03-08T14:24:43.304Z,24.88
2024-03-08T14:27:10.825Z,22.90
2024-03-08T14:29:37.773Z,23.42
2024-03-08T14:32:07.345Z,21.65
2024-03-08T14:34:35.022Z,20.25
2024-03-08T14:37:06.427Z,25.40
2024-03-08T14:39:34.607Z,25.02
2024-03-08T14:42:01.235Z,22.13
2024-03-08T14:44:27.897Z,23.75
2024-03-08T14:46:54.776Z,24.30
2024-03-08T14:49:22.281Z,23.98
2024-03-08T14:51:49.264Z,25.00
2024-03-08T14:54:15.982Z,24.98
2024-03-08T14:56:42.594Z,20.85
2024-03-08T14:59:10.103Z,24.52
2024-03-08T15:01:37.459Z,21.73
2024-03-08T15:04:09.637Z,21.90
2024-03-08T15:06:38.432Z,21.67
2024-03-08T15:09:18.282Z,23.67
2024-03-08T15:11:51.043Z,24.35
2024-03-08T15:14:20.295Z,28.20
2024-03-08T15:16:49.139Z,21.05
2024-03-08T15:19:16.731Z,27.58
2024-03-08T15:21:47.061Z,30.88
2024-03-08T15:24:16.425Z,25.95
2024-03-08T15:26:44.585Z,22.98
2024-03-08T15:29:13.964Z,24.13
2024-03-08T15:31:41.952Z,23.38
2024-03-08T15:34:09.777Z,23.50
2024-03-08T15:36:36.449Z,22.00
2024-03-08T15:39:04.129Z,21.80
2024-03-08T15:41:30.938Z,23.88
2024-03-08T15:43:57.992Z,21.83
2024-03-08T15:46:25.842Z,23.98
2024-03-08T15:48:52.988Z,22.83
2024-03-08T15:51:20.705Z,23.63
2024-03-08T15:53:59.559Z,26.40
2024-03-08T15:56:27.029Z,24.63
2024-03-08T15:58:54.264Z,25.05
2024-03-08T16:01:23.665Z,26.55
2024-03-08T16:03:51.130Z,27.33
2024-03-08T16:06:22.699Z,24.63
2024-03-08T16:08:50.250Z,55.50
2024-03-08T16:11:18.352Z,83.00
2024-03-08T16:13:45.612Z,29.58
2024-03-08T16:16:13.391Z,50.25
2024-03-08T16:18:40.171Z,38.38
2024-03-08T16:21:08.685Z,28.27
2024-03-08T16:23:36.591Z,109.75
2024-03-08T16:26:03.427Z,61.65
2024-03-08T16:28:39.192Z,56.78
2024-03-08T16:31:08.488Z,54.45
2024-03-08T16:33:35.975Z,47.25
2024-03-08T16:36:04.288Z,45.88
2024-03-08T16:38:33.256Z,44.72
2024-03-08T16:41:02.119Z,57.53
2024-03-08T16:43:29.125Z,52.17
2024-03-08T16:45:57.076Z,45.25
2024-03-08T16:48:25.402Z,43.30
2024-03-08T16:50:55.480Z,56.28
2024-03-08T16:53:22.373Z,59.72
2024-03-08T16:55:49.127Z,93.03
2024-03-08T16:58:16.274Z,83.13
2024-03-08T17:00:43.656Z,67.60
2024-03-08T17:03:13.658Z,32.05
2024-03-08T17:05:45.773Z,60.80
2024-03-08T17:08:12.793Z,67.35
2024-03-08T17:10:41.638Z,38.28
2024-03-08T17:13:09.256Z,43.38
2024-03-08T17:15:36.975Z,71.80
2024-03-08T17:18:07.391Z,52.75
2024-03-08T17:20:37.737Z,63.60
2024-03-08T17:23:09.640Z,49.30
2024-03-08T17:25:38.792Z,37.33
2024-03-08T17:28:08.034Z,32.45
2024-03-08T17:30:39.036Z,34.97
2024-03-08T17:33:10.101Z,33.15
2024-03-08T17:35:39.427Z,34.40
2024-03-08T17:38:12.672Z,32.85
2024-03-08T17:40:42.367Z,30.50
2024-03-08T17:43:14.656Z,32.47
2024-03-08T17:45:47.468Z,31.60
2024-03-08T17:48:17.396Z,29.33
2024-03-08T17:50:45.698Z,35.08
2024-03-08T17:53:12.880Z,41.65
2024-03-08T17:55:42.878Z,43.30
2024-03-08T17:58:11.491Z,41.95
2024-03-08T18:00:40.634Z,50.00
2024-03-08T18:03:09.900Z,82.90
2024-03-08T18:05:43.016Z,100.18
2024-03-08T18:08:10.486Z,100.53
2024-03-08T18:10:38.792Z,72.43
2024-03-08T18:13:17.339Z,71.47
2024-03-08T18:15:47.506Z,60.90
2024-03-08T18:18:15.022Z,57.35
2024-03-08T18:20:45.927Z,62.30
2024-03-08T18:23:14.168Z,55.90
2024-03-08T18:25:41.216Z,60.58
2024-03-08T18:28:13.685Z,49.22
2024-03-08T18:30:42.406Z,49.20
2024-03-08T18:33:13.042Z,64.78
2024-03-08T18:35:40.183Z,38.15
2024-03-08T18:38:08.880Z,38.83
2024-03-08T18:40:35.901Z,50.25
2024-03-08T18:43:02.718Z,74.32
2024-03-08T18:45:29.790Z,116.32
2024-03-08T18:47:59.301Z,61.22
2024-03-08T18:50:29.634Z,101.25
2024-03-08T18:52:59.471Z,110.82
2024-03-08T18:55:29.615Z,194.32
2024-03-08T18:58:02.396Z,104.82
2024-03-08T19:00:40.150Z,60.45
2024-03-08T19:03:11.928Z,46.83
2024-03-08T19:05:43.574Z,38.13
2024-03-08T19:08:14.530Z,37.00
2024-03-08T19:10:42.461Z,35.53
2024-03-08T19:13:13.067Z,43.33
2024-03-08T19:15:39.882Z,41.05
2024-03-08T19:18:09.401Z,36.05
2024-03-08T19:20:38.472Z,40.05
2024-03-08T19:23:07.325Z,39.22
2024-03-08T19:25:36.742Z,37.92
2024-03-08T19:28:08.212Z,42.78
2024-03-08T19:30:37.683Z,38.83
2024-03-08T19:33:09.290Z,49.58
2024-03-08T19:35:36.793Z,46.15
2024-03-08T19:38:04.375Z,42.47
2024-03-08T19:40:36.062Z,41.42
2024-03-08T19:43:06.841Z,51.13
2024-03-08T19:45:34.168Z,50.35
2024-03-08T19:48:04.438Z,57.25
2024-03-08T19:50:33.758Z,61.50
2024-03-08T19:53:09.063Z,62.25
2024-03-08T19:55:37.520Z,65.55
2024-03-08T19:58:05.522Z,63.63
2024-03-08T20:00:35.530Z,64.55
2024-03-08T20:03:05.493Z,61.25
2024-03-08T20:05:35.740Z,58.67
2024-03-08T20:08:09.385Z,58.25
2024-03-08T20:10:38.233Z,57.85
2024-03-08T20:13:08.816Z,61.95
2024-03-08T20:15:47.043Z,53.00
2024-03-08T20:18:14.497Z,58.47
2024-03-08T20:20:44.056Z,56.63
2024-03-08T20:23:11.061Z,64.32
2024-03-08T20:25:39.152Z,68.53
2024-03-08T20:28:07.025Z,65.05
2024-03-08T20:30:34.334Z,65.90
2024-03-08T20:33:05.852Z,60.22
2024-03-08T20:35:35.243Z,55.97
2024-03-08T20:38:23.754Z,58.90
2024-03-08T20:40:51.439Z,61.08
2024-03-08T20:43:19.075Z,54.78
2024-03-08T20:45:46.062Z,59.65
2024-03-08T20:48:15.936Z,58.35
2024-03-08T20:50:43.401Z,55.67
2024-03-08T20:53:13.320Z,50.88
2024-03-08T20:55:43.338Z,53.17
2024-03-08T20:58:12.533Z,42.90
2024-03-08T21:00:40.165Z,56.50
2024-03-08T21:03:09.129Z,53.22
2024-03-08T21:05:37.394Z,55.95
2024-03-08T21:08:07.463Z,54.90
2024-03-08T21:10:36.640Z,62.78
2024-03-08T21:13:03.795Z,57.72
2024-03-08T21:15:30.357Z,55.85
2024-03-08T21:17:57.147Z,53.35
2024-03-08T21:20:25.823Z,58.55
2024-03-08T21:22:52.547Z,60.63
2024-03-08T21:25:20.664Z,55.10
2024-03-08T21:27:47.648Z,54.78
2024-03-08T21:30:27.798Z,56.03
2024-03-08T21:32:55.404Z,56.03
2024-03-08T21:35:22.144Z,52.90
2024-03-08T21:37:49.182Z,49.17
2024-03-08T21:40:22.985Z,49.38
2024-03-08T21:42:53.987Z,54.10
2024-03-08T21:45:23.027Z,52.97
2024-03-08T21:47:50.015Z,50.47
2024-03-08T21:50:16.792Z,55.35
2024-03-08T21:52:44.642Z,58.05
2024-03-08T21:55:12.828Z,57.08
2024-03-08T21:57:39.467Z,60.55
2024-03-08T22:00:12.436Z,60.88
2024-03-08T22:02:46.854Z,71.30
2024-03-08T22:05:17.494Z,61.65
2024-03-08T22:07:45.559Z,60.78
2024-03-08T22:10:27.946Z,62.28
2024-03-08T22:12:57.042Z,63.15
2024-03-08T22:15:24.577Z,58.15
2024-03-08T22:17:56.996Z,61.95
2024-03-08T22:20:28.055Z,66.20
2024-03-08T22:22:56.004Z,71.45
2024-03-08T22:25:23.244Z,74.57
2024-03-08T22:27:51.121Z,68.55
2024-03-08T22:30:20.214Z,66.00
2024-03-08T22:32:48.054Z,65.30
2024-03-08T22:35:15.958Z,63.78
2024-03-08T22:37:43.336Z,58.75
2024-03-08T22:40:14.123Z,59.80
2024-03-08T22:42:42.898Z,60.35
2024-03-08T22:45:11.386Z,57.78
2024-03-08T22:47:38.697Z,60.72
2024-03-08T22:50:06.596Z,60.75
2024-03-08T22:55:00.135Z,102.57
2024-03-08T22:57:27.883Z,86.18
2024-03-08T22:59:56.373Z,83.75
2024-03-08T23:02:23.072Z,80.70
2024-03-08T23:04:49.852Z,71.03
2024-03-08T23:07:16.685Z,73.65
2024-03-08T23:09:44.202Z,136.73
2024-03-08T23:12:11.523Z,101.15
2024-03-08T23:14:39.277Z,150.38
2024-03-08T23:17:08.165Z,122.22
2024-03-08T23:19:38.803Z,138.75
2024-03-08T23:22:12.114Z,151.70
2024-03-08T23:24:38.845Z,146.18
2024-03-08T23:27:05.669Z,198.25
2024-03-08T23:29:32.390Z,228.13
2024-03-08T23:31:59.044Z,134.30
2024-03-08T23:34:25.929Z,130.93
2024-03-08T23:36:53.634Z,101.30
2024-03-08T23:39:23.111Z,101.47
2024-03-08T23:41:51.020Z,73.40
2024-03-08T23:44:20.939Z,85.53
2024-03-08T23:46:47.956Z,84.97
2024-03-08T23:49:18.331Z,100.60
2024-03-08T23:51:46.734Z,70.93
2024-03-08T23:54:14.294Z,74.93
2024-03-08T23:56:42.208Z,67.65
2024-03-08T23:59:09.207Z,59.70
